GVAC/SID METAR and TAF weather

Enter ICAO airport designator
Station Type Date Time Source
GVAC METAR 2018/10/22 17:00 UTC NOAA

GVAC 221700Z 06013KT 9999 FEW013 BKN100 28/21 Q1013 NOSIG


Station Type Date Time Source
GVAC Decoded METAR 2018/10/22 17:00 UTC NOAA

Sal, Cape Verde (GVAC) 16-44N 022-57W 55M
Oct 22, 2018 - 01:00 PM EDT / 2018.10.22 1700 UTC
Wind: from the ENE (060 degrees) at 15 MPH (13 KT):0
Visibility: greater than 7 mile(s):0
Sky conditions: mostly cloudy
Temperature: 82 F (28 C)
Dew Point: 69 F (21 C)
Relative Humidity: 65%
Pressure (altimeter): 29.91 in. Hg (1013 hPa)
ob: GVAC 221700Z 06013KT 9999 FEW013 BKN100 28/21 Q1013 NOSIG
cycle: 17

Station Type Date Time Source
GVAC TAF 2018/10/22 18:57 UTC NOAA

TAF GVAC 221700Z 2218/2324 06012KT 9999 SCT013


Example: see airport list